createdAt,value
2022-08-11T00:01:30.925Z,100705.77
2022-08-11T00:04:22.350Z,100701.44
2022-08-11T00:07:11.431Z,100701.69
2022-08-11T00:10:00.413Z,100698.42
2022-08-11T00:12:55.527Z,100701.64
2022-08-11T00:15:45.518Z,100700.25
2022-08-11T00:18:41.633Z,100699.41
2022-08-11T00:22:02.875Z,100695.33
2022-08-11T00:24:53.549Z,100694.77
2022-08-11T00:27:42.700Z,100688.81
2022-08-11T00:30:39.931Z,100697.19
2022-08-11T00:33:41.202Z,100702.27
2022-08-11T00:36:42.943Z,100699.28
2022-08-11T00:39:36.579Z,100697.64
2022-08-11T00:42:40.619Z,100688.98
2022-08-11T00:45:33.547Z,100692.20
2022-08-11T00:48:40.029Z,100696.21
2022-08-11T00:51:56.762Z,100694.85
2022-08-11T00:55:30.537Z,100693.97
2022-08-11T00:58:56.427Z,100690.16
2022-08-11T01:02:11.189Z,100683.64
2022-08-11T01:05:28.441Z,100689.30
2022-08-11T01:08:57.127Z,100685.48
2022-08-11T01:12:21.553Z,100682.73
2022-08-11T01:15:57.315Z,100678.34
2022-08-11T01:19:21.267Z,100671.83
2022-08-11T01:22:53.219Z,100668.57
2022-08-11T01:26:20.788Z,100664.75
2022-08-11T01:29:41.266Z,100669.82
2022-08-11T01:33:14.963Z,100661.64
2022-08-11T01:36:42.064Z,100669.44
2022-08-11T01:40:11.053Z,100662.65
2022-08-11T01:43:48.815Z,100664.22
2022-08-11T01:46:45.003Z,100660.16
2022-08-11T01:50:09.573Z,100662.53
2022-08-11T01:53:04.994Z,100658.47
2022-08-11T01:56:05.563Z,100656.52
2022-08-11T01:59:04.092Z,100658.64
2022-08-11T02:02:12.249Z,100649.20
2022-08-11T02:05:20.378Z,100642.41
2022-08-11T02:08:21.275Z,100652.62
2022-08-11T02:11:35.787Z,100640.72
2022-08-11T02:14:39.667Z,100645.55
2022-08-11T02:17:46.265Z,100641.48
2022-08-11T02:21:03.669Z,100643.61
2022-08-11T02:24:04.056Z,100640.34
2022-08-11T02:27:02.242Z,100647.61
2022-08-11T02:30:06.743Z,100644.05
2022-08-11T02:33:24.050Z,100636.95
2022-08-11T02:36:21.140Z,100638.02
2022-08-11T02:39:13.257Z,100646.10
2022-08-11T02:42:33.455Z,100642.84
2022-08-11T02:45:54.119Z,100643.91
2022-08-11T02:49:14.499Z,100644.41
2022-08-11T02:52:08.708Z,100645.20
2022-08-11T02:55:10.717Z,100646.27
2022-08-11T02:58:31.055Z,100647.59
2022-08-11T03:01:39.213Z,100647.59
2022-08-11T03:04:38.014Z,100647.59
2022-08-11T03:07:32.997Z,100652.98
2022-08-11T03:10:26.948Z,100648.16
2022-08-11T03:13:39.542Z,100646.27
2022-08-11T03:16:46.127Z,100642.77
2022-08-11T03:19:46.717Z,100648.39
2022-08-11T03:22:45.060Z,100649.45
2022-08-11T03:25:39.591Z,100649.45
2022-08-11T03:28:34.116Z,100649.45
2022-08-11T03:31:27.279Z,100659.17
2022-08-11T03:34:22.192Z,100656.48
2022-08-11T03:37:46.066Z,100659.73
2022-08-11T03:41:49.389Z,100665.70
2022-08-11T03:44:37.925Z,100661.94
2022-08-11T03:47:38.649Z,100657.37
2022-08-11T03:50:45.698Z,100654.69
2022-08-11T03:54:01.851Z,100658.17
2022-08-11T03:57:35.450Z,100654.42
2022-08-11T04:00:52.308Z,100655.55
2022-08-11T04:04:08.590Z,100653.99
2022-08-11T04:07:36.665Z,100661.34
2022-08-11T04:10:53.408Z,100669.50
2022-08-11T04:14:34.491Z,100663.34
2022-08-11T04:17:58.710Z,100666.94
2022-08-11T04:21:20.455Z,100658.91
2022-08-11T04:24:50.494Z,100662.73
2022-08-11T04:28:28.836Z,100655.77
2022-08-11T04:31:49.588Z,100655.56
2022-08-11T04:34:51.595Z,100661.84
2022-08-11T04:38:17.337Z,100658.94
2022-08-11T04:42:04.270Z,100657.97
2022-08-11T04:45:47.055Z,100661.04
2022-08-11T04:49:24.944Z,100661.66
2022-08-11T04:53:09.775Z,100661.44
2022-08-11T04:56:41.267Z,100664.45
2022-08-11T05:00:07.056Z,100664.74
2022-08-11T05:03:43.182Z,100663.16
2022-08-11T05:07:05.295Z,100664.05
2022-08-11T05:10:13.663Z,100665.96
2022-08-11T05:13:18.073Z,100666.56
2022-08-11T05:16:30.355Z,100666.61
2022-08-11T05:19:40.502Z,100671.81
2022-08-11T05:22:48.448Z,100661.05
2022-08-11T05:26:44.013Z,100673.25
2022-08-11T05:29:57.326Z,100667.96
2022-08-11T05:33:13.816Z,100664.81
2022-08-11T05:36:11.833Z,100663.04
2022-08-11T05:39:36.767Z,100665.03
2022-08-11T05:42:44.460Z,100656.75
2022-08-11T05:46:02.593Z,100665.52
2022-08-11T05:49:11.113Z,100660.47
2022-08-11T05:52:21.341Z,100670.81
2022-08-11T05:56:01.839Z,100668.13
2022-08-11T05:58:51.637Z,100669.25
2022-08-11T06:01:41.991Z,100672.75
2022-08-11T06:04:31.029Z,100667.86
2022-08-11T06:07:27.374Z,100669.47
2022-08-11T06:10:25.419Z,100674.61
2022-08-11T06:13:17.515Z,100671.59
2022-08-11T06:16:07.266Z,100673.75
2022-08-11T06:18:56.476Z,100663.69
2022-08-11T06:21:48.398Z,100666.36
2022-08-11T06:24:41.636Z,100664.41
2022-08-11T06:27:34.579Z,100660.31
2022-08-11T06:30:35.770Z,100664.33
2022-08-11T06:33:36.105Z,100661.05
2022-08-11T06:36:39.494Z,100661.82
2022-08-11T06:39:29.116Z,100662.05
2022-08-11T06:42:34.220Z,100659.83
2022-08-11T06:45:30.890Z,100660.28
2022-08-11T06:48:23.278Z,100660.20
2022-08-11T06:51:12.716Z,100659.87
2022-08-11T06:54:04.209Z,100665.27
2022-08-11T06:57:29.345Z,100658.69
2022-08-11T07:00:28.018Z,100663.45
2022-08-11T07:03:19.101Z,100659.41
2022-08-11T07:06:23.591Z,100659.62
2022-08-11T07:10:00.190Z,100659.36
2022-08-11T07:13:44.090Z,100668.03
2022-08-11T07:16:26.757Z,100667.94
2022-08-11T07:19:38.228Z,100668.16
2022-08-11T07:22:48.035Z,100663.50
2022-08-11T07:25:57.563Z,100669.09
2022-08-11T07:28:58.578Z,100663.55
2022-08-11T07:31:51.157Z,100666.45
2022-08-11T07:34:45.706Z,100671.84
2022-08-11T07:37:35.573Z,100664.98
2022-08-11T07:40:24.983Z,100664.41
2022-08-11T07:43:14.221Z,100661.38
2022-08-11T07:46:23.774Z,100654.47
2022-08-11T07:49:31.329Z,100656.78
2022-08-11T07:52:29.971Z,100652.37
2022-08-11T07:55:21.115Z,100638.90
2022-08-11T07:58:52.192Z,100636.78
2022-08-11T08:02:01.725Z,100647.72
2022-08-11T08:05:09.899Z,100643.17
2022-08-11T08:08:17.354Z,100648.17
2022-08-11T08:11:27.582Z,100635.66
2022-08-11T08:14:36.075Z,100637.30
2022-08-11T08:17:43.695Z,100633.73
2022-08-11T08:20:35.382Z,100636.72
2022-08-11T08:23:32.900Z,100636.30
2022-08-11T08:26:39.661Z,100636.62
2022-08-11T08:29:49.520Z,100643.08
2022-08-11T08:32:41.662Z,100639.26
2022-08-11T08:35:32.896Z,100643.18
2022-08-11T08:38:20.373Z,100638.59
2022-08-11T08:41:09.923Z,100638.14
2022-08-11T08:44:36.731Z,100645.80
2022-08-11T08:47:41.775Z,100643.23
2022-08-11T08:50:52.167Z,100639.86
2022-08-11T08:53:49.954Z,100640.97
2022-08-11T08:56:44.052Z,100639.81
2022-08-11T08:59:47.541Z,100641.64
2022-08-11T09:02:38.565Z,100634.10
2022-08-11T09:05:26.800Z,100642.02
2022-08-11T09:08:17.479Z,100640.14
2022-08-11T09:11:24.570Z,100633.23
2022-08-11T09:14:15.224Z,100633.02
2022-08-11T09:17:03.972Z,100635.33
2022-08-11T09:19:59.900Z,100626.75
2022-08-11T09:26:36.269Z,100622.12
2022-08-11T09:29:26.527Z,100625.52
2022-08-11T09:32:15.516Z,100621.34
2022-08-11T09:35:06.625Z,100619.23
2022-08-11T09:38:14.080Z,100620.72
2022-08-11T09:41:05.672Z,100609.42
2022-08-11T09:44:12.802Z,100621.34
2022-08-11T09:47:01.903Z,100610.86
2022-08-11T09:49:52.701Z,100606.64
2022-08-11T09:52:57.230Z,100609.59
2022-08-11T09:55:53.100Z,100602.81
2022-08-11T09:58:45.421Z,100605.38
2022-08-11T10:01:37.198Z,100603.11
2022-08-11T10:04:32.132Z,100607.12
2022-08-11T10:07:21.215Z,100599.37
2022-08-11T10:10:11.038Z,100598.72
2022-08-11T10:13:03.965Z,100607.08
2022-08-11T10:16:00.046Z,100603.37
2022-08-11T10:19:06.034Z,100605.14
2022-08-11T10:22:13.857Z,100605.78
2022-08-11T10:25:20.854Z,100599.95
2022-08-11T10:28:28.306Z,100596.71
2022-08-11T10:31:47.167Z,100598.61
2022-08-11T10:34:51.287Z,100589.09
2022-08-11T10:38:08.655Z,100593.13
2022-08-11T10:41:23.657Z,100590.33
2022-08-11T10:44:13.178Z,100590.98
2022-08-11T10:47:22.043Z,100592.84
2022-08-11T10:50:31.928Z,100593.02
2022-08-11T10:53:39.058Z,100585.08
2022-08-11T10:56:47.471Z,100584.89
2022-08-11T10:59:36.066Z,100575.19
2022-08-11T11:02:26.654Z,100580.57
2022-08-11T11:05:24.453Z,100584.13
2022-08-11T11:08:30.804Z,100572.79
2022-08-11T11:11:21.214Z,100569.95
2022-08-11T11:14:30.353Z,100569.02
2022-08-11T11:17:44.746Z,100561.84
2022-08-11T11:20:46.508Z,100571.28
2022-08-11T11:23:46.935Z,100569.73
2022-08-11T11:26:49.835Z,100571.61
2022-08-11T11:29:54.099Z,100561.70
2022-08-11T11:32:56.398Z,100560.52
2022-08-11T11:35:57.295Z,100563.17
2022-08-11T11:38:45.725Z,100564.23
2022-08-11T11:41:34.929Z,100564.48
2022-08-11T11:44:24.215Z,100557.49
2022-08-11T11:47:14.571Z,100557.88
2022-08-11T11:50:05.294Z,100547.91
2022-08-11T11:52:55.401Z,100545.33
2022-08-11T11:55:44.344Z,100551.12
2022-08-11T11:58:51.343Z,100546.70
2022-08-11T12:01:40.043Z,100543.27
2022-08-11T12:04:29.377Z,100548.55
2022-08-11T12:07:36.425Z,100543.15
2022-08-11T12:10:27.166Z,100543.97
2022-08-11T12:13:35.605Z,100544.19
2022-08-11T12:16:33.158Z,100539.84
2022-08-11T12:19:28.094Z,100537.88
2022-08-11T12:22:35.099Z,100547.26
2022-08-11T12:25:42.027Z,100528.66
2022-08-11T12:28:31.440Z,100530.62
2022-08-11T12:34:24.214Z,100533.51
2022-08-11T12:37:14.055Z,100533.51
2022-08-11T12:40:49.582Z,100528.83
2022-08-11T12:43:56.293Z,100523.06
2022-08-11T12:46:48.528Z,100519.26
2022-08-11T12:50:00.302Z,100524.30
2022-08-11T12:52:56.501Z,100519.23
2022-08-11T12:56:07.831Z,100518.23
2022-08-11T12:59:17.235Z,100521.68
2022-08-11T13:02:23.979Z,100520.69
2022-08-11T13:05:17.683Z,100521.96
2022-08-11T13:08:07.563Z,100518.17
2022-08-11T13:11:16.856Z,100520.00
2022-08-11T13:14:06.308Z,100513.35
2022-08-11T13:17:13.416Z,100509.80
2022-08-11T13:20:02.611Z,100504.98
2022-08-11T13:22:52.598Z,100511.52
2022-08-11T13:25:41.756Z,100512.42
2022-08-11T13:28:31.792Z,100508.65
2022-08-11T13:31:20.380Z,100507.50
2022-08-11T13:34:09.135Z,100507.50
2022-08-11T13:37:00.101Z,100505.98
2022-08-11T13:39:48.917Z,100505.98
2022-08-11T13:42:38.229Z,100500.60
2022-08-11T13:45:27.855Z,100493.34
2022-08-11T13:48:17.719Z,100492.31
2022-08-11T13:51:24.538Z,100479.33
2022-08-11T13:54:26.133Z,100483.59
2022-08-11T13:58:08.441Z,100478.09
2022-08-11T14:00:28.267Z,100478.09
2022-08-11T14:03:20.943Z,100485.78
2022-08-11T14:06:10.739Z,100482.48
2022-08-11T14:08:59.752Z,100478.46
2022-08-11T14:12:23.262Z,100482.27
2022-08-11T14:15:19.342Z,100486.05
2022-08-11T14:18:13.866Z,100489.41
2022-08-11T14:21:24.163Z,100479.40
2022-08-11T14:24:13.770Z,100484.69
2022-08-11T14:27:05.120Z,100484.01
2022-08-11T14:29:54.403Z,100483.33
2022-08-11T14:32:52.707Z,100475.22
2022-08-11T14:35:44.425Z,100481.27
2022-08-11T14:38:39.510Z,100481.50
2022-08-11T14:42:10.302Z,100484.84
2022-08-11T14:45:16.566Z,100475.52
2022-08-11T14:48:10.642Z,100478.84
2022-08-11T14:51:00.348Z,100474.72
2022-08-11T14:54:09.120Z,100478.02
2022-08-11T14:56:59.953Z,100475.84
2022-08-11T14:59:50.759Z,100472.50
2022-08-11T15:02:58.502Z,100472.39
2022-08-11T15:05:56.561Z,100464.47
2022-08-11T15:08:55.964Z,100467.16
2022-08-11T15:12:03.280Z,100471.27
2022-08-11T15:15:09.845Z,100467.23
2022-08-11T15:18:02.385Z,100462.73
2022-08-11T15:21:09.542Z,100466.22
2022-08-11T15:24:15.921Z,100463.56
2022-08-11T15:27:25.329Z,100470.66
2022-08-11T15:30:34.214Z,100463.56
2022-08-11T15:33:44.823Z,100463.89
2022-08-11T15:36:50.487Z,100463.89
2022-08-11T15:40:08.067Z,100463.56
2022-08-11T15:43:40.434Z,100463.89
2022-08-11T15:46:33.954Z,100459.89
2022-08-11T15:50:10.813Z,100458.28
2022-08-11T15:52:46.743Z,100453.75
2022-08-11T15:55:36.549Z,100455.56
2022-08-11T15:58:45.423Z,100448.82
2022-08-11T16:01:54.881Z,100456.91
2022-08-11T16:04:45.647Z,100435.97
2022-08-11T16:07:36.381Z,100436.77
2022-08-11T16:10:29.457Z,100449.89
2022-08-11T16:13:42.054Z,100442.19
2022-08-11T16:16:30.665Z,100447.08
2022-08-11T16:19:20.601Z,100444.19
2022-08-11T16:22:11.810Z,100438.58
2022-08-11T16:27:04.502Z,100446.06
2022-08-11T16:28:14.675Z,100437.72
2022-08-11T16:31:08.724Z,100441.13
2022-08-11T16:33:57.758Z,100445.31
2022-08-11T16:37:04.455Z,100443.58
2022-08-11T16:39:53.335Z,100448.13
2022-08-11T16:43:00.309Z,100447.96
2022-08-11T16:46:31.215Z,100446.89
2022-08-11T16:49:34.663Z,100454.81
2022-08-11T16:52:24.132Z,100441.95
2022-08-11T16:55:12.338Z,100452.62
2022-08-11T16:58:39.979Z,100453.13
2022-08-11T17:01:29.467Z,100455.74
2022-08-11T17:04:51.921Z,100460.75
2022-08-11T17:08:01.239Z,100461.25
2022-08-11T17:11:11.133Z,100464.97
2022-08-11T17:14:01.468Z,100464.30
2022-08-11T17:16:52.541Z,100475.38
2022-08-11T17:20:42.135Z,100478.58
2022-08-11T17:23:14.785Z,100469.53
2022-08-11T17:26:04.431Z,100481.40
2022-08-11T17:28:57.725Z,100480.08
2022-08-11T17:32:04.851Z,100479.05
2022-08-11T17:35:15.148Z,100482.53
2022-08-11T17:38:06.892Z,100487.25
2022-08-11T17:41:23.206Z,100488.14
2022-08-11T17:44:46.027Z,100493.04
2022-08-11T17:47:53.212Z,100493.12
2022-08-11T17:50:42.795Z,100492.88
2022-08-11T17:54:02.131Z,100501.56
2022-08-11T17:57:21.571Z,100507.08
2022-08-11T18:00:12.288Z,100505.20
2022-08-11T18:03:18.724Z,100509.27
2022-08-11T18:06:12.732Z,100524.23
2022-08-11T18:09:21.094Z,100526.05
2022-08-11T18:12:29.872Z,100531.67
2022-08-11T18:15:36.111Z,100528.64
2022-08-11T18:18:42.317Z,100540.53
2022-08-11T18:22:12.940Z,100544.84
2022-08-11T18:25:19.969Z,100549.45
2022-08-11T18:28:29.886Z,100552.07
2022-08-11T18:31:39.382Z,100555.73
2022-08-11T18:34:50.478Z,100557.51
2022-08-11T18:38:01.594Z,100557.67
2022-08-11T18:41:09.766Z,100561.38
2022-08-11T18:44:20.547Z,100569.90
2022-08-11T18:47:31.464Z,100571.59
2022-08-11T18:50:40.973Z,100582.55
2022-08-11T18:53:57.578Z,100588.06
2022-08-11T18:57:06.386Z,100587.03
2022-08-11T19:00:15.018Z,100579.45
2022-08-11T19:03:25.474Z,100582.22
2022-08-11T19:06:39.965Z,100581.19
2022-08-11T19:09:48.632Z,100587.72
2022-08-11T19:16:03.135Z,100588.09
2022-08-11T19:19:14.187Z,100591.67
2022-08-11T19:22:22.818Z,100593.66
2022-08-11T19:25:32.182Z,100592.63
2022-08-11T19:28:40.419Z,100600.02
2022-08-11T19:31:48.100Z,100597.36
2022-08-11T19:34:55.629Z,100598.25
2022-08-11T19:38:03.573Z,100603.73
2022-08-11T19:41:12.319Z,100610.03
2022-08-11T19:44:22.069Z,100609.56
2022-08-11T19:47:29.427Z,100601.46
2022-08-11T19:50:37.960Z,100605.30
2022-08-11T19:53:47.281Z,100606.45
2022-08-11T19:56:55.066Z,100601.63
2022-08-11T20:00:02.335Z,100597.65
2022-08-11T20:03:11.029Z,100597.17
2022-08-11T20:06:21.292Z,100599.67
2022-08-11T20:10:04.731Z,100599.19
2022-08-11T20:12:57.858Z,100596.56
2022-08-11T20:16:04.999Z,100600.97
2022-08-11T20:19:13.344Z,100606.97
2022-08-11T20:22:20.052Z,100611.67
2022-08-11T20:25:29.170Z,100609.82
2022-08-11T20:28:37.945Z,100611.20
2022-08-11T20:31:44.185Z,100618.31
2022-08-11T20:34:54.606Z,100622.43
2022-08-11T20:38:02.784Z,100630.32
2022-08-11T20:41:09.779Z,100629.27
2022-08-11T20:44:17.417Z,100630.14
2022-08-11T20:47:26.085Z,100631.77
2022-08-11T20:50:34.778Z,100634.22
2022-08-11T20:53:42.793Z,100636.41
2022-08-11T20:56:52.053Z,100636.43
2022-08-11T20:59:59.065Z,100639.98
2022-08-11T21:03:07.362Z,100646.21
2022-08-11T21:06:14.055Z,100654.88
2022-08-11T21:09:58.286Z,100652.45
2022-08-11T21:13:26.480Z,100657.02
2022-08-11T21:16:31.897Z,100657.29
2022-08-11T21:20:01.445Z,100652.95
2022-08-11T21:23:24.114Z,100654.03
2022-08-11T21:26:34.420Z,100658.06
2022-08-11T21:29:41.812Z,100657.51
2022-08-11T21:32:49.705Z,100657.50
2022-08-11T21:35:56.409Z,100658.84
2022-08-11T21:39:02.858Z,100650.97
2022-08-11T21:42:10.296Z,100658.52
2022-08-11T21:45:17.473Z,100653.38
2022-08-11T21:48:25.633Z,100645.24
2022-08-11T21:51:32.635Z,100645.45
2022-08-11T21:54:39.220Z,100648.13
2022-08-11T21:57:50.003Z,100641.08
2022-08-11T22:00:56.609Z,100650.54
2022-08-11T22:04:04.233Z,100641.58
2022-08-11T22:07:11.549Z,100649.14
2022-08-11T22:10:41.631Z,100640.20
2022-08-11T22:14:05.372Z,100648.30
2022-08-11T22:17:10.208Z,100648.27
2022-08-11T22:20:17.346Z,100650.91
2022-08-11T22:23:25.113Z,100649.80
2022-08-11T22:26:42.912Z,100650.61
2022-08-11T22:29:53.647Z,100654.08
2022-08-11T22:33:00.386Z,100649.19
2022-08-11T22:36:08.199Z,100639.42
2022-08-11T22:39:16.965Z,100637.25
2022-08-11T22:42:33.457Z,100642.37
2022-08-11T22:45:40.270Z,100640.98
2022-08-11T22:48:49.111Z,100638.01
2022-08-11T22:51:57.013Z,100638.73
2022-08-11T22:55:05.086Z,100630.08
2022-08-11T22:58:15.311Z,100623.57
2022-08-11T23:01:22.121Z,100630.56
2022-08-11T23:04:30.058Z,100623.50
2022-08-11T23:07:49.545Z,100618.61
2022-08-11T23:10:57.813Z,100618.33
2022-08-11T23:14:04.516Z,100619.92
2022-08-11T23:17:11.141Z,100618.53
2022-08-11T23:20:33.826Z,100623.09
2022-08-11T23:23:46.774Z,100616.82
2022-08-11T23:26:54.519Z,100616.53
2022-08-11T23:30:01.319Z,100618.36
2022-08-11T23:33:12.083Z,100615.33
2022-08-11T23:36:35.983Z,100613.66
2022-08-11T23:39:45.501Z,100616.30
2022-08-11T23:42:56.348Z,100613.55
2022-08-11T23:46:03.380Z,100614.30
2022-08-11T23:49:14.694Z,100624.23
2022-08-11T23:52:21.757Z,100622.52
2022-08-11T23:55:28.424Z,100625.41
2022-08-11T23:58:34.383Z,100618.09
